Panamint Springs, California
Current Conditions -  °F | °C
As of 6:56 AM on Thursday 30 Oct 2014 (Local Time) from KBIH Reporting Station
Clear Clear  
Wind Chill: 28°   Ceiling: Unl
Heat Index: 34°   Visibility: 10mi
Dew Point: 18°   Wind: 7mph
Humidity: 52%   Direction: 320°NW
Pressure: 30.15"   Gusts: NA
Location:  36.6126°N, 118.162°W
Report Text: KBIH 301356Z AUTO 32006KT 10SM CLR 01/M08 A3015 RMK AO2 SLP189 T00111078 $
Loading
Personal Weather Stations






























Interactive Weather Map
Tropical Storm Tracking
New forecast layout! Learn more

10-Day Weather Forecast

Advertisements
Track Severe Weather on mobile